CheckWX is a tool to help pilots better visualize weather data.  It is not intended as a substitute for an official pre-flight weather briefing.

19:21:39 UTC

KSWF TAF
Stewart International Airport
New York, New York, USA
KSWF 161739Z 1618/1724 25009KT P6SM BKN060 BKN100 BKN200 FM170200 29004KT P6SM BKN040 BKN080 BKN100 FM171200 32008KT P6SM SCT060 BKN250 FM172200 VRB04KT P6SM FEW060 SCT250 AMD NOT SKED

Feb-16@
18:00 UTC

Feb-16 @ 18:00 UTC

Feb-17@
02:00 UTC

Feb-17 @ 02:00 UTC

KSWF 161739Z 1618/1724 25009KT P6SM BKN060 BKN100 BKN200
Wind
  • 250° at 9 KTS
Cloud Levels
  • Broken at 6,000' AGL
  • Broken at 10,000' AGL
  • Broken at 20,000' AGL

Feb-17@
02:00 UTC

Feb-17 @ 02:00 UTC

Feb-17@
12:00 UTC

Feb-17 @ 12:00 UTC

FM170200 29004KT P6SM BKN040 BKN080 BKN100

From

From Standard forecast or significant change

Wind
  • 290° at 4 KTS
Cloud Levels
  • Broken at 4,000' AGL
  • Broken at 8,000' AGL
  • Broken at 10,000' AGL

Feb-17@
12:00 UTC

Feb-17 @ 12:00 UTC

Feb-17@
22:00 UTC

Feb-17 @ 22:00 UTC

FM171200 32008KT P6SM SCT060 BKN250

From

From Standard forecast or significant change

Wind
  • 320° at 8 KTS
Cloud Levels
  • Scattered at 6,000' AGL
  • Broken at 25,000' AGL

Feb-17@
22:00 UTC

Feb-17 @ 22:00 UTC

Feb-18@
00:00 UTC

Feb-18 @ 00:00 UTC

FM172200 VRB04KT P6SM FEW060 SCT250 AMD NOT SKED

From

From Standard forecast or significant change

Wind
  • Variable at 4 KTS
Cloud Levels
  • Few at 6,000' AGL
  • Scattered at 25,000' AGL